﻿<?xml version="1.0" encoding="utf-8"?><gpx creator="Garmin Desktop App" version="1.1" xsi:schemaLocation="http://www.topografix.com/GPX/1/1 http://www.topografix.com/GPX/1/1/gpx.xsd http://www.garmin.com/xmlschemas/WaypointExtension/v1 http://www8.garmin.com/xmlschemas/WaypointExtensionv1.xsd http://www.garmin.com/xmlschemas/TrackPointExtension/v1 http://www.garmin.com/xmlschemas/TrackPointExtensionv1.xsd http://www.garmin.com/xmlschemas/GpxExtensions/v3 http://www8.garmin.com/xmlschemas/GpxExtensionsv3.xsd http://www.garmin.com/xmlschemas/ActivityExtension/v1 http://www8.garmin.com/xmlschemas/ActivityExtensionv1.xsd http://www.garmin.com/xmlschemas/AdventuresExtensions/v1 http://www8.garmin.com/xmlschemas/AdventuresExtensionv1.xsd http://www.garmin.com/xmlschemas/PressureExtension/v1 http://www.garmin.com/xmlschemas/PressureExtensionv1.xsd http://www.garmin.com/xmlschemas/TripExtensions/v1 http://www.garmin.com/xmlschemas/TripExtensionsv1.xsd http://www.garmin.com/xmlschemas/TripMetaDataExtensions/v1 http://www.garmin.com/xmlschemas/TripMetaDataExtensionsv1.xsd http://www.garmin.com/xmlschemas/ViaPointTransportationModeExtensions/v1 http://www.garmin.com/xmlschemas/ViaPointTransportationModeExtensionsv1.xsd http://www.garmin.com/xmlschemas/CreationTimeExtension/v1 http://www.garmin.com/xmlschemas/CreationTimeExtensionsv1.xsd http://www.garmin.com/xmlschemas/AccelerationExtension/v1 http://www.garmin.com/xmlschemas/AccelerationExtensionv1.xsd http://www.garmin.com/xmlschemas/PowerExtension/v1 http://www.garmin.com/xmlschemas/PowerExtensionv1.xsd http://www.garmin.com/xmlschemas/VideoExtension/v1 http://www.garmin.com/xmlschemas/VideoExtensionv1.xsd" xmlns="http://www.topografix.com/GPX/1/1" xmlns:xsi="http://www.w3.org/2001/XMLSchema-instance" xmlns:wptx1="http://www.garmin.com/xmlschemas/WaypointExtension/v1" xmlns:gpxtrx="http://www.garmin.com/xmlschemas/GpxExtensions/v3" xmlns:gpxtpx="http://www.garmin.com/xmlschemas/TrackPointExtension/v1" xmlns:gpxx="http://www.garmin.com/xmlschemas/GpxExtensions/v3" xmlns:trp="http://www.garmin.com/xmlschemas/TripExtensions/v1" xmlns:adv="http://www.garmin.com/xmlschemas/AdventuresExtensions/v1" xmlns:prs="http://www.garmin.com/xmlschemas/PressureExtension/v1" xmlns:tmd="http://www.garmin.com/xmlschemas/TripMetaDataExtensions/v1" xmlns:vptm="http://www.garmin.com/xmlschemas/ViaPointTransportationModeExtensions/v1" xmlns:ctx="http://www.garmin.com/xmlschemas/CreationTimeExtension/v1" xmlns:gpxacc="http://www.garmin.com/xmlschemas/AccelerationExtension/v1" xmlns:gpxpx="http://www.garmin.com/xmlschemas/PowerExtension/v1" xmlns:vidx1="http://www.garmin.com/xmlschemas/VideoExtension/v1">

  <metadata>
    <link href="http://www.garmin.com">
      <text>Garmin International</text>
    </link>
    <time>2024-07-04T06:55:00Z</time>
    <bounds maxlat="45.568680446594954" maxlon="5.922960732132196" minlat="45.563424909487367" minlon="5.917003462091088" />
  </metadata>

  <trk>
    <name>Blog-Chambery ville</name>
    <extensions>
      <gpxx:TrackExtension>
        <gpxx:DisplayColor>Yellow</gpxx:DisplayColor>
      </gpxx:TrackExtension>
    </extensions>
    <trkseg>
      <trkpt lat="45.568313235417008" lon="5.918104592710733">
        <ele>287.08999999999997</ele>
        <time>2024-06-07T13:09:56Z</time>
      </trkpt>
      <trkpt lat="45.568111315369606" lon="5.918654361739755">
        <ele>287.08999999999997</ele>
        <time>2024-06-07T13:10:12Z</time>
      </trkpt>
      <trkpt lat="45.567845106124878" lon="5.919090891256928">
        <ele>287.08999999999997</ele>
        <time>2024-06-07T13:10:32Z</time>
      </trkpt>
      <trkpt lat="45.567843010649085" lon="5.919112097471952">
        <ele>287.08999999999997</ele>
        <time>2024-06-07T13:10:58Z</time>
      </trkpt>
      <trkpt lat="45.567804202437401" lon="5.919096088036895">
        <ele>284.20999999999998</ele>
        <time>2024-06-07T13:11:16Z</time>
      </trkpt>
      <trkpt lat="45.567720634862781" lon="5.919008245691657">
        <ele>283.73000000000002</ele>
        <time>2024-06-07T13:11:38Z</time>
      </trkpt>
      <trkpt lat="45.567629607394338" lon="5.918912440538406">
        <ele>283.73000000000002</ele>
        <time>2024-06-07T13:11:52Z</time>
      </trkpt>
      <trkpt lat="45.5674640648067" lon="5.918761482462287">
        <ele>283.73000000000002</ele>
        <time>2024-06-07T13:12:09Z</time>
      </trkpt>
      <trkpt lat="45.567346718162298" lon="5.91871278360486">
        <ele>283.73000000000002</ele>
        <time>2024-06-07T13:12:30Z</time>
      </trkpt>
      <trkpt lat="45.567351914942265" lon="5.918672801926732">
        <ele>283.73000000000002</ele>
        <time>2024-06-07T13:12:51Z</time>
      </trkpt>
      <trkpt lat="45.567305143922567" lon="5.918774055317044">
        <ele>283.73000000000002</ele>
        <time>2024-06-07T13:13:11Z</time>
      </trkpt>
      <trkpt lat="45.567282345145941" lon="5.918832393363118">
        <ele>283.73000000000002</ele>
        <time>2024-06-07T13:13:30Z</time>
      </trkpt>
      <trkpt lat="45.567254684865475" lon="5.918899280950427">
        <ele>285.17000000000002</ele>
        <time>2024-06-07T13:13:49Z</time>
      </trkpt>
      <trkpt lat="45.567215625196695" lon="5.918920990079641">
        <ele>283.25</ele>
        <time>2024-06-07T13:13:57Z</time>
      </trkpt>
      <trkpt lat="45.567167429253459" lon="5.919002797454596">
        <ele>282.76999999999998</ele>
        <time>2024-06-07T13:14:11Z</time>
      </trkpt>
      <trkpt lat="45.567138092592359" lon="5.919046467170119">
        <ele>282.76999999999998</ele>
        <time>2024-06-07T13:14:24Z</time>
      </trkpt>
      <trkpt lat="45.567096937447786" lon="5.91907630674541">
        <ele>283.73000000000002</ele>
        <time>2024-06-07T13:14:41Z</time>
      </trkpt>
      <trkpt lat="45.567076066508889" lon="5.919087370857596">
        <ele>284.20999999999998</ele>
        <time>2024-06-07T13:14:52Z</time>
      </trkpt>
      <trkpt lat="45.567048573866487" lon="5.919140428304672">
        <ele>284.20999999999998</ele>
        <time>2024-06-07T13:15:02Z</time>
      </trkpt>
      <trkpt lat="45.566909266635776" lon="5.919252661988139">
        <ele>284.20999999999998</ele>
        <time>2024-06-07T13:15:19Z</time>
      </trkpt>
      <trkpt lat="45.566814299672842" lon="5.919288033619523">
        <ele>284.69</ele>
        <time>2024-06-07T13:15:32Z</time>
      </trkpt>
      <trkpt lat="45.566707011312246" lon="5.919361710548401">
        <ele>284.69</ele>
        <time>2024-06-07T13:15:51Z</time>
      </trkpt>
      <trkpt lat="45.566594190895557" lon="5.919449469074607">
        <ele>283.73000000000002</ele>
        <time>2024-06-07T13:16:10Z</time>
      </trkpt>
      <trkpt lat="45.566475335508585" lon="5.919565642252564">
        <ele>283.73000000000002</ele>
        <time>2024-06-07T13:16:30Z</time>
      </trkpt>
      <trkpt lat="45.566391013562679" lon="5.919672595337033">
        <ele>283.25</ele>
        <time>2024-06-07T13:16:46Z</time>
      </trkpt>
      <trkpt lat="45.566389840096235" lon="5.919766807928681">
        <ele>283.25</ele>
        <time>2024-06-07T13:17:07Z</time>
      </trkpt>
      <trkpt lat="45.566325969994068" lon="5.919894212856889">
        <ele>283.25</ele>
        <time>2024-06-07T13:17:28Z</time>
      </trkpt>
      <trkpt lat="45.566296214237809" lon="5.919969230890274">
        <ele>282.76999999999998</ele>
        <time>2024-06-07T13:17:43Z</time>
      </trkpt>
      <trkpt lat="45.566272828727961" lon="5.92001985758543">
        <ele>282.76999999999998</ele>
        <time>2024-06-07T13:18:02Z</time>
      </trkpt>
      <trkpt lat="45.566271739080548" lon="5.920078866183758">
        <ele>282.27999999999997</ele>
        <time>2024-06-07T13:18:29Z</time>
      </trkpt>
      <trkpt lat="45.56623812764883" lon="5.920138796791434">
        <ele>282.27999999999997</ele>
        <time>2024-06-07T13:18:55Z</time>
      </trkpt>
      <trkpt lat="45.566220609471202" lon="5.920231668278575">
        <ele>282.27999999999997</ele>
        <time>2024-06-07T13:19:18Z</time>
      </trkpt>
      <trkpt lat="45.566095970571041" lon="5.920492261648178">
        <ele>282.76999999999998</ele>
        <time>2024-06-07T13:19:33Z</time>
      </trkpt>
      <trkpt lat="45.566146681085229" lon="5.920629557222128">
        <ele>282.76999999999998</ele>
        <time>2024-06-07T13:19:49Z</time>
      </trkpt>
      <trkpt lat="45.565972756594419" lon="5.920890904963017">
        <ele>282.76999999999998</ele>
        <time>2024-06-07T13:20:03Z</time>
      </trkpt>
      <trkpt lat="45.565779805183411" lon="5.920771546661854">
        <ele>283.73000000000002</ele>
        <time>2024-06-07T13:21:48Z</time>
      </trkpt>
      <trkpt lat="45.565614262595773" lon="5.92095360159874">
        <ele>283.73000000000002</ele>
        <time>2024-06-07T13:22:16Z</time>
      </trkpt>
      <trkpt lat="45.565641084685922" lon="5.921023925766349">
        <ele>283.73000000000002</ele>
        <time>2024-06-07T13:22:36Z</time>
      </trkpt>
      <trkpt lat="45.56556137278676" lon="5.9211456310004">
        <ele>283.73000000000002</ele>
        <time>2024-06-07T13:22:56Z</time>
      </trkpt>
      <trkpt lat="45.565488366410136" lon="5.921258702874184">
        <ele>283.73000000000002</ele>
        <time>2024-06-07T13:23:15Z</time>
      </trkpt>
      <trkpt lat="45.565414438024163" lon="5.921136746183038">
        <ele>283.73000000000002</ele>
        <time>2024-06-07T13:23:35Z</time>
      </trkpt>
      <trkpt lat="45.565282171592116" lon="5.920921918004751">
        <ele>283.73000000000002</ele>
        <time>2024-06-07T13:23:52Z</time>
      </trkpt>
      <trkpt lat="45.565147642046213" lon="5.920675992965698">
        <ele>284.20999999999998</ele>
        <time>2024-06-07T13:24:14Z</time>
      </trkpt>
      <trkpt lat="45.565054770559072" lon="5.92051774263382">
        <ele>284.20999999999998</ele>
        <time>2024-06-07T13:24:34Z</time>
      </trkpt>
      <trkpt lat="45.56502727791667" lon="5.920549426227808">
        <ele>284.20999999999998</ele>
        <time>2024-06-07T13:24:41Z</time>
      </trkpt>
      <trkpt lat="45.56492954492569" lon="5.920677836984396">
        <ele>284.20999999999998</ele>
        <time>2024-06-07T13:24:59Z</time>
      </trkpt>
      <trkpt lat="45.564841702580452" lon="5.920773558318615">
        <ele>284.69</ele>
        <time>2024-06-07T13:25:16Z</time>
      </trkpt>
      <trkpt lat="45.564772551879287" lon="5.920853521674871">
        <ele>284.69</ele>
        <time>2024-06-07T13:25:28Z</time>
      </trkpt>
      <trkpt lat="45.564747070893645" lon="5.920850755646825">
        <ele>284.69</ele>
        <time>2024-06-07T13:25:41Z</time>
      </trkpt>
      <trkpt lat="45.564724188297987" lon="5.920909093692899">
        <ele>284.69</ele>
        <time>2024-06-07T13:25:57Z</time>
      </trkpt>
      <trkpt lat="45.564684206619859" lon="5.920954439789057">
        <ele>285.17000000000002</ele>
        <time>2024-06-07T13:26:14Z</time>
      </trkpt>
      <trkpt lat="45.564672974869609" lon="5.921003306284547">
        <ele>285.17000000000002</ele>
        <time>2024-06-07T13:26:20Z</time>
      </trkpt>
      <trkpt lat="45.564639028161764" lon="5.921004395931959">
        <ele>285.17000000000002</ele>
        <time>2024-06-07T13:26:35Z</time>
      </trkpt>
      <trkpt lat="45.564590580761433" lon="5.921082431450486">
        <ele>285.17000000000002</ele>
        <time>2024-06-07T13:26:38Z</time>
      </trkpt>
      <trkpt lat="45.564537104219198" lon="5.921129789203405">
        <ele>285.17000000000002</ele>
        <time>2024-06-07T13:26:57Z</time>
      </trkpt>
      <trkpt lat="45.564500223845243" lon="5.921198101714253">
        <ele>285.17000000000002</ele>
        <time>2024-06-07T13:27:10Z</time>
      </trkpt>
      <trkpt lat="45.56441405788064" lon="5.921336738392711">
        <ele>286.13</ele>
        <time>2024-06-07T13:32:09Z</time>
      </trkpt>
      <trkpt lat="45.564405005425215" lon="5.92136163264513">
        <ele>286.13</ele>
        <time>2024-06-07T13:32:23Z</time>
      </trkpt>
      <trkpt lat="45.564397294074297" lon="5.921366661787033">
        <ele>286.13</ele>
        <time>2024-06-07T13:32:30Z</time>
      </trkpt>
      <trkpt lat="45.564371645450592" lon="5.921386275440455">
        <ele>286.13</ele>
        <time>2024-06-07T13:33:14Z</time>
      </trkpt>
      <trkpt lat="45.564315402880311" lon="5.921469340100884">
        <ele>286.13</ele>
        <time>2024-06-07T13:33:15Z</time>
      </trkpt>
      <trkpt lat="45.564251448959112" lon="5.921522229909897">
        <ele>286.13</ele>
        <time>2024-06-07T13:33:33Z</time>
      </trkpt>
      <trkpt lat="45.564513634890318" lon="5.922105275094509">
        <ele>286.13</ele>
        <time>2024-06-07T13:34:08Z</time>
      </trkpt>
      <trkpt lat="45.564523609355092" lon="5.92205448076129">
        <ele>286.13</ele>
        <time>2024-06-07T13:34:34Z</time>
      </trkpt>
      <trkpt lat="45.564487231895328" lon="5.922003518790007">
        <ele>286.13</ele>
        <time>2024-06-07T13:34:48Z</time>
      </trkpt>
      <trkpt lat="45.564389834180474" lon="5.921857673674822">
        <ele>286.13</ele>
        <time>2024-06-07T13:35:06Z</time>
      </trkpt>
      <trkpt lat="45.564295286312699" lon="5.921601774170995">
        <ele>286.13</ele>
        <time>2024-06-07T13:35:24Z</time>
      </trkpt>
      <trkpt lat="45.564241809770465" lon="5.921574700623751">
        <ele>286.13</ele>
        <time>2024-06-07T13:35:41Z</time>
      </trkpt>
      <trkpt lat="45.564222196117043" lon="5.921640414744616">
        <ele>286.13</ele>
        <time>2024-06-07T13:35:42Z</time>
      </trkpt>
      <trkpt lat="45.564112309366465" lon="5.921762622892857">
        <ele>286.13</ele>
        <time>2024-06-07T13:35:57Z</time>
      </trkpt>
      <trkpt lat="45.564031843096018" lon="5.921959178522229">
        <ele>286.13</ele>
        <time>2024-06-07T13:36:11Z</time>
      </trkpt>
      <trkpt lat="45.563891362398863" lon="5.921890530735254">
        <ele>286.13</ele>
        <time>2024-06-07T13:36:30Z</time>
      </trkpt>
      <trkpt lat="45.56367670185864" lon="5.921786846593022">
        <ele>286.13</ele>
        <time>2024-06-07T13:36:46Z</time>
      </trkpt>
      <trkpt lat="45.563441589474678" lon="5.921743763610721">
        <ele>286.61000000000001</ele>
        <time>2024-06-07T13:37:01Z</time>
      </trkpt>
      <trkpt lat="45.563436560332775" lon="5.921822972595692">
        <ele>286.13</ele>
        <time>2024-06-07T13:37:15Z</time>
      </trkpt>
      <trkpt lat="45.563446283340454" lon="5.921919448301196">
        <ele>286.13</ele>
        <time>2024-06-07T13:37:28Z</time>
      </trkpt>
      <trkpt lat="45.563424909487367" lon="5.922146094962955">
        <ele>286.13</ele>
        <time>2024-06-07T13:37:45Z</time>
      </trkpt>
      <trkpt lat="45.563443768769503" lon="5.92221767641604">
        <ele>286.13</ele>
        <time>2024-06-07T13:37:57Z</time>
      </trkpt>
      <trkpt lat="45.563534460961819" lon="5.9223095420748">
        <ele>286.13</ele>
        <time>2024-06-07T13:38:18Z</time>
      </trkpt>
      <trkpt lat="45.563558181747794" lon="5.922411801293492">
        <ele>286.61000000000001</ele>
        <time>2024-06-07T13:38:34Z</time>
      </trkpt>
      <trkpt lat="45.563652729615569" lon="5.922382045537233">
        <ele>286.61000000000001</ele>
        <time>2024-06-07T13:38:45Z</time>
      </trkpt>
      <trkpt lat="45.563716515898705" lon="5.922501152381301">
        <ele>286.61000000000001</ele>
        <time>2024-06-07T13:38:58Z</time>
      </trkpt>
      <trkpt lat="45.563836460933089" lon="5.922659151256084">
        <ele>287.08999999999997</ele>
        <time>2024-06-07T13:39:13Z</time>
      </trkpt>
      <trkpt lat="45.563889434561133" lon="5.922752944752574">
        <ele>287.08999999999997</ele>
        <time>2024-06-07T13:39:29Z</time>
      </trkpt>
      <trkpt lat="45.563957830891013" lon="5.922836596146226">
        <ele>285.64999999999998</ele>
        <time>2024-06-07T13:39:50Z</time>
      </trkpt>
      <trkpt lat="45.564065203070641" lon="5.922801224514842">
        <ele>285.64999999999998</ele>
        <time>2024-06-07T13:40:04Z</time>
      </trkpt>
      <trkpt lat="45.56409889832139" lon="5.922759314998984">
        <ele>285.64999999999998</ele>
        <time>2024-06-07T13:40:15Z</time>
      </trkpt>
      <trkpt lat="45.564178274944425" lon="5.922704329714179">
        <ele>285.17000000000002</ele>
        <time>2024-06-07T13:40:32Z</time>
      </trkpt>
      <trkpt lat="45.564374998211861" lon="5.92261204496026">
        <ele>285.17000000000002</ele>
        <time>2024-06-07T13:40:47Z</time>
      </trkpt>
      <trkpt lat="45.564441801980138" lon="5.922746825963259">
        <ele>285.17000000000002</ele>
        <time>2024-06-07T13:40:58Z</time>
      </trkpt>
      <trkpt lat="45.564447669312358" lon="5.922857718542218">
        <ele>285.17000000000002</ele>
        <time>2024-06-07T13:41:10Z</time>
      </trkpt>
      <trkpt lat="45.56451715528965" lon="5.922917649149895">
        <ele>285.17000000000002</ele>
        <time>2024-06-07T13:41:43Z</time>
      </trkpt>
      <trkpt lat="45.56457775644958" lon="5.922857383266091">
        <ele>284.69</ele>
        <time>2024-06-07T13:42:02Z</time>
      </trkpt>
      <trkpt lat="45.564885288476944" lon="5.922653619199991">
        <ele>284.69</ele>
        <time>2024-06-07T13:42:10Z</time>
      </trkpt>
      <trkpt lat="45.564951924607158" lon="5.922716483473778">
        <ele>284.69</ele>
        <time>2024-06-07T13:42:37Z</time>
      </trkpt>
      <trkpt lat="45.565098524093628" lon="5.922849923372269">
        <ele>287.56999999999999</ele>
        <time>2024-06-07T13:45:10Z</time>
      </trkpt>
      <trkpt lat="45.565120317041874" lon="5.92266820371151">
        <ele>287.56999999999999</ele>
        <time>2024-06-07T13:45:31Z</time>
      </trkpt>
      <trkpt lat="45.565057285130024" lon="5.922311302274466">
        <ele>287.56999999999999</ele>
        <time>2024-06-07T13:45:55Z</time>
      </trkpt>
      <trkpt lat="45.565407816320658" lon="5.922076022252441">
        <ele>288.52999999999997</ele>
        <time>2024-06-07T13:47:26Z</time>
      </trkpt>
      <trkpt lat="45.565655417740345" lon="5.921926070004702">
        <ele>288.52999999999997</ele>
        <time>2024-06-07T13:47:46Z</time>
      </trkpt>
      <trkpt lat="45.566003937274218" lon="5.921730184927583">
        <ele>288.52999999999997</ele>
        <time>2024-06-07T13:48:35Z</time>
      </trkpt>
      <trkpt lat="45.566230081021786" lon="5.922136371955276">
        <ele>289.00999999999999</ele>
        <time>2024-06-07T13:51:23Z</time>
      </trkpt>
      <trkpt lat="45.566251706331968" lon="5.922185489907861">
        <ele>287.08999999999997</ele>
        <time>2024-06-07T14:33:45Z</time>
      </trkpt>
      <trkpt lat="45.566295795142651" lon="5.922268889844418">
        <ele>288.05000000000001</ele>
        <time>2024-06-07T14:33:37Z</time>
      </trkpt>
      <trkpt lat="45.566419009119272" lon="5.922508696094155">
        <ele>288.05000000000001</ele>
        <time>2024-06-07T14:33:15Z</time>
      </trkpt>
      <trkpt lat="45.566546078771353" lon="5.922763589769602">
        <ele>288.05000000000001</ele>
        <time>2024-06-07T14:32:55Z</time>
      </trkpt>
      <trkpt lat="45.566703993827105" lon="5.922960732132196">
        <ele>288.05000000000001</ele>
        <time>2024-06-07T14:32:35Z</time>
      </trkpt>
      <trkpt lat="45.566826872527599" lon="5.922823352739215">
        <ele>287.56999999999999</ele>
        <time>2024-06-07T14:32:16Z</time>
      </trkpt>
      <trkpt lat="45.566897951066494" lon="5.922743892297149">
        <ele>287.56999999999999</ele>
        <time>2024-06-07T14:31:57Z</time>
      </trkpt>
      <trkpt lat="45.567098949104548" lon="5.922542642802">
        <ele>287.56999999999999</ele>
        <time>2024-06-07T14:31:35Z</time>
      </trkpt>
      <trkpt lat="45.567212020978332" lon="5.922384224832058">
        <ele>287.56999999999999</ele>
        <time>2024-06-07T14:31:14Z</time>
      </trkpt>
      <trkpt lat="45.567301120609045" lon="5.922268722206354">
        <ele>287.56999999999999</ele>
        <time>2024-06-07T14:31:06Z</time>
      </trkpt>
      <trkpt lat="45.567414695397019" lon="5.922153387218714">
        <ele>287.56999999999999</ele>
        <time>2024-06-07T14:30:50Z</time>
      </trkpt>
      <trkpt lat="45.567550649866462" lon="5.921955825760961">
        <ele>287.56999999999999</ele>
        <time>2024-06-07T14:30:26Z</time>
      </trkpt>
      <trkpt lat="45.567843513563275" lon="5.921666147187352">
        <ele>287.56999999999999</ele>
        <time>2024-06-07T14:30:07Z</time>
      </trkpt>
      <trkpt lat="45.568168982863426" lon="5.921147977933288">
        <ele>287.08999999999997</ele>
        <time>2024-06-07T14:29:48Z</time>
      </trkpt>
      <trkpt lat="45.568349780514836" lon="5.921284938231111">
        <ele>287.08999999999997</ele>
        <time>2024-06-07T14:29:28Z</time>
      </trkpt>
      <trkpt lat="45.568448519334197" lon="5.920968018472195">
        <ele>286.61000000000001</ele>
        <time>2024-06-07T14:29:08Z</time>
      </trkpt>
      <trkpt lat="45.568477688357234" lon="5.920738354325295">
        <ele>286.61000000000001</ele>
        <time>2024-06-07T14:28:52Z</time>
      </trkpt>
      <trkpt lat="45.568534936755896" lon="5.92048698104918">
        <ele>286.61000000000001</ele>
        <time>2024-06-07T14:28:39Z</time>
      </trkpt>
      <trkpt lat="45.568573577329516" lon="5.920442976057529">
        <ele>286.61000000000001</ele>
        <time>2024-06-07T14:28:37Z</time>
      </trkpt>
      <trkpt lat="45.568680446594954" lon="5.920131420716643">
        <ele>286.13</ele>
        <time>2024-06-07T14:28:18Z</time>
      </trkpt>
      <trkpt lat="45.568666951730847" lon="5.91989136300981">
        <ele>285.64999999999998</ele>
        <time>2024-06-07T14:28:04Z</time>
      </trkpt>
      <trkpt lat="45.568552957847714" lon="5.919814752414823">
        <ele>285.64999999999998</ele>
        <time>2024-06-07T14:27:51Z</time>
      </trkpt>
      <trkpt lat="45.568408537656069" lon="5.919675193727016">
        <ele>285.64999999999998</ele>
        <time>2024-06-07T14:27:35Z</time>
      </trkpt>
      <trkpt lat="45.56824785657227" lon="5.919490540400147">
        <ele>285.64999999999998</ele>
        <time>2024-06-07T14:27:18Z</time>
      </trkpt>
      <trkpt lat="45.568148111924529" lon="5.919429939240217">
        <ele>285.64999999999998</ele>
        <time>2024-06-07T14:26:59Z</time>
      </trkpt>
      <trkpt lat="45.568106370046735" lon="5.919377552345395">
        <ele>285.64999999999998</ele>
        <time>2024-06-07T14:26:57Z</time>
      </trkpt>
      <trkpt lat="45.567915262654424" lon="5.919210836291313">
        <ele>285.64999999999998</ele>
        <time>2024-06-07T14:25:33Z</time>
      </trkpt>
      <trkpt lat="45.567895229905844" lon="5.919159036129713">
        <ele>285.64999999999998</ele>
        <time>2024-06-07T14:18:25Z</time>
      </trkpt>
      <trkpt lat="45.567872934043407" lon="5.919150654226542">
        <ele>285.64999999999998</ele>
        <time>2024-06-07T14:18:24Z</time>
      </trkpt>
      <trkpt lat="45.567771093919873" lon="5.919033894315362">
        <ele>285.64999999999998</ele>
        <time>2024-06-07T14:18:09Z</time>
      </trkpt>
      <trkpt lat="45.56773966178298" lon="5.919143864884973">
        <ele>285.64999999999998</ele>
        <time>2024-06-07T14:17:52Z</time>
      </trkpt>
      <trkpt lat="45.567782577127218" lon="5.919193401932716">
        <ele>285.64999999999998</ele>
        <time>2024-06-07T14:17:36Z</time>
      </trkpt>
      <trkpt lat="45.567662548273802" lon="5.919362045824528">
        <ele>285.64999999999998</ele>
        <time>2024-06-07T14:17:20Z</time>
      </trkpt>
      <trkpt lat="45.567637570202351" lon="5.919354083016515">
        <ele>286.13</ele>
        <time>2024-06-07T14:17:16Z</time>
      </trkpt>
      <trkpt lat="45.567606221884489" lon="5.919296164065599">
        <ele>286.13</ele>
        <time>2024-06-07T14:16:56Z</time>
      </trkpt>
      <trkpt lat="45.567530784755945" lon="5.919250398874283">
        <ele>286.13</ele>
        <time>2024-06-07T14:16:39Z</time>
      </trkpt>
      <trkpt lat="45.567276561632752" lon="5.918864579871297">
        <ele>286.13</ele>
        <time>2024-06-07T14:16:24Z</time>
      </trkpt>
      <trkpt lat="45.567354848608375" lon="5.918676238507032">
        <ele>286.13</ele>
        <time>2024-06-07T14:16:10Z</time>
      </trkpt>
      <trkpt lat="45.567262731492519" lon="5.918565010651946">
        <ele>286.13</ele>
        <time>2024-06-07T14:15:54Z</time>
      </trkpt>
      <trkpt lat="45.567121244966984" lon="5.918445568531752">
        <ele>286.13</ele>
        <time>2024-06-07T14:15:36Z</time>
      </trkpt>
      <trkpt lat="45.566872721537948" lon="5.918245408684015">
        <ele>286.13</ele>
        <time>2024-06-07T14:15:20Z</time>
      </trkpt>
      <trkpt lat="45.566840367391706" lon="5.918163266032934">
        <ele>286.13</ele>
        <time>2024-06-07T14:15:16Z</time>
      </trkpt>
      <trkpt lat="45.56673894636333" lon="5.918046422302723">
        <ele>286.61000000000001</ele>
        <time>2024-06-07T14:14:58Z</time>
      </trkpt>
      <trkpt lat="45.566640626639128" lon="5.917998729273677">
        <ele>286.61000000000001</ele>
        <time>2024-06-07T14:14:56Z</time>
      </trkpt>
      <trkpt lat="45.566483549773693" lon="5.917862523347139">
        <ele>285.64999999999998</ele>
        <time>2024-06-07T14:14:43Z</time>
      </trkpt>
      <trkpt lat="45.566361090168357" lon="5.917760515585542">
        <ele>285.64999999999998</ele>
        <time>2024-06-07T14:14:28Z</time>
      </trkpt>
      <trkpt lat="45.565961105749011" lon="5.917482823133469">
        <ele>285.64999999999998</ele>
        <time>2024-06-07T14:13:57Z</time>
      </trkpt>
      <trkpt lat="45.565721718594432" lon="5.917346784844995">
        <ele>285.64999999999998</ele>
        <time>2024-06-07T14:13:32Z</time>
      </trkpt>
      <trkpt lat="45.565641587600112" lon="5.917288530617952">
        <ele>285.64999999999998</ele>
        <time>2024-06-07T14:13:30Z</time>
      </trkpt>
      <trkpt lat="45.565571766346693" lon="5.917260032147169">
        <ele>286.13</ele>
        <time>2024-06-07T14:13:08Z</time>
      </trkpt>
      <trkpt lat="45.565529856830835" lon="5.917242933064699">
        <ele>288.52999999999997</ele>
        <time>2024-06-07T14:12:54Z</time>
      </trkpt>
      <trkpt lat="45.565450899302959" lon="5.917200101539493">
        <ele>289.49000000000001</ele>
        <time>2024-06-07T14:12:34Z</time>
      </trkpt>
      <trkpt lat="45.565407145768404" lon="5.91719507239759">
        <ele>289.49000000000001</ele>
        <time>2024-06-07T14:12:14Z</time>
      </trkpt>
      <trkpt lat="45.565376551821828" lon="5.917184092104435">
        <ele>289.97000000000003</ele>
        <time>2024-06-07T14:11:49Z</time>
      </trkpt>
      <trkpt lat="45.565368505194783" lon="5.917185265570879">
        <ele>289.97000000000003</ele>
        <time>2024-06-07T14:11:25Z</time>
      </trkpt>
      <trkpt lat="45.565323913469911" lon="5.917168585583568">
        <ele>290.45999999999998</ele>
        <time>2024-06-07T14:11:05Z</time>
      </trkpt>
      <trkpt lat="45.565239423885942" lon="5.917161963880062">
        <ele>290.45999999999998</ele>
        <time>2024-06-07T14:10:44Z</time>
      </trkpt>
      <trkpt lat="45.565200448036194" lon="5.917148301377893">
        <ele>291.89999999999998</ele>
        <time>2024-06-07T14:10:24Z</time>
      </trkpt>
      <trkpt lat="45.5651362426579" lon="5.917122820392251">
        <ele>293.81999999999999</ele>
        <time>2024-06-07T14:10:11Z</time>
      </trkpt>
      <trkpt lat="45.565113695338368" lon="5.917110666632652">
        <ele>297.18000000000001</ele>
        <time>2024-06-07T14:09:56Z</time>
      </trkpt>
      <trkpt lat="45.565046472474933" lon="5.917065488174558">
        <ele>300.55000000000001</ele>
        <time>2024-06-07T14:09:49Z</time>
      </trkpt>
      <trkpt lat="45.56488654576242" lon="5.917043527588248">
        <ele>300.55000000000001</ele>
        <time>2024-06-07T14:09:34Z</time>
      </trkpt>
      <trkpt lat="45.564745897427201" lon="5.917010167613626">
        <ele>300.55000000000001</ele>
        <time>2024-06-07T14:09:22Z</time>
      </trkpt>
      <trkpt lat="45.564661407843232" lon="5.917003462091088">
        <ele>300.55000000000001</ele>
        <time>2024-06-07T14:09:18Z</time>
      </trkpt>
      <trkpt lat="45.564691498875618" lon="5.917006731033325">
        <ele>301.02999999999997</ele>
        <time>2024-06-07T14:09:03Z</time>
      </trkpt>
      <trkpt lat="45.564808510243893" lon="5.917021818459034">
        <ele>301.02999999999997</ele>
        <time>2024-06-07T14:08:49Z</time>
      </trkpt>
      <trkpt lat="45.564957708120346" lon="5.917068589478731">
        <ele>301.02999999999997</ele>
        <time>2024-06-07T14:08:35Z</time>
      </trkpt>
      <trkpt lat="45.565049825236201" lon="5.917082838714123">
        <ele>301.02999999999997</ele>
        <time>2024-06-07T14:08:15Z</time>
      </trkpt>
      <trkpt lat="45.565034989267588" lon="5.917084431275725">
        <ele>301.02999999999997</ele>
        <time>2024-06-07T14:07:59Z</time>
      </trkpt>
      <trkpt lat="45.565101709216833" lon="5.917106978595257">
        <ele>299.58999999999997</ele>
        <time>2024-06-07T14:07:37Z</time>
      </trkpt>
      <trkpt lat="45.56515677832067" lon="5.917137740179896">
        <ele>296.22000000000003</ele>
        <time>2024-06-07T14:07:22Z</time>
      </trkpt>
      <trkpt lat="45.565279657021165" lon="5.917172189801931">
        <ele>293.81999999999999</ele>
        <time>2024-06-07T14:07:05Z</time>
      </trkpt>
      <trkpt lat="45.565432710573077" lon="5.917194318026304">
        <ele>290.94</ele>
        <time>2024-06-07T14:06:49Z</time>
      </trkpt>
      <trkpt lat="45.565505884587765" lon="5.917223654687405">
        <ele>289.97000000000003</ele>
        <time>2024-06-07T14:06:33Z</time>
      </trkpt>
      <trkpt lat="45.565649047493935" lon="5.917308647185564">
        <ele>289.00999999999999</ele>
        <time>2024-06-07T14:06:19Z</time>
      </trkpt>
      <trkpt lat="45.565629014745355" lon="5.917664458975196">
        <ele>289.00999999999999</ele>
        <time>2024-06-07T14:06:04Z</time>
      </trkpt>
      <trkpt lat="45.56553446687758" lon="5.917890518903732">
        <ele>289.00999999999999</ele>
        <time>2024-06-07T14:05:46Z</time>
      </trkpt>
      <trkpt lat="45.565395997837186" lon="5.918146837502718">
        <ele>290.45999999999998</ele>
        <time>2024-06-07T14:05:29Z</time>
      </trkpt>
      <trkpt lat="45.565158035606146" lon="5.918424194678664">
        <ele>290.45999999999998</ele>
        <time>2024-06-07T14:05:09Z</time>
      </trkpt>
      <trkpt lat="45.565139763057232" lon="5.91849435120821">
        <ele>290.45999999999998</ele>
        <time>2024-06-07T14:04:58Z</time>
      </trkpt>
      <trkpt lat="45.565093075856566" lon="5.918560232967138">
        <ele>290.94</ele>
        <time>2024-06-07T14:04:44Z</time>
      </trkpt>
      <trkpt lat="45.565065331757069" lon="5.918588060885668">
        <ele>291.42000000000002</ele>
        <time>2024-06-07T14:04:37Z</time>
      </trkpt>
      <trkpt lat="45.564992409199476" lon="5.9186658449471">
        <ele>291.42000000000002</ele>
        <time>2024-06-07T14:04:33Z</time>
      </trkpt>
      <trkpt lat="45.564900794997811" lon="5.918820910155773">
        <ele>291.89999999999998</ele>
        <time>2024-06-07T14:04:15Z</time>
      </trkpt>
      <trkpt lat="45.564861316233873" lon="5.918873967602849">
        <ele>292.38</ele>
        <time>2024-06-07T14:04:08Z</time>
      </trkpt>
      <trkpt lat="45.564828291535378" lon="5.918941693380475">
        <ele>291.89999999999998</ele>
        <time>2024-06-07T14:04:07Z</time>
      </trkpt>
      <trkpt lat="45.564770624041557" lon="5.919005395844579">
        <ele>292.86000000000001</ele>
        <time>2024-06-07T14:03:59Z</time>
      </trkpt>
      <trkpt lat="45.564722260460258" lon="5.919077983126044">
        <ele>295.25999999999999</ele>
        <time>2024-06-07T14:03:47Z</time>
      </trkpt>
      <trkpt lat="45.564693678170443" lon="5.919138668105006">
        <ele>295.74000000000001</ele>
        <time>2024-06-07T14:03:31Z</time>
      </trkpt>
      <trkpt lat="45.564636932685971" lon="5.919029787182808">
        <ele>295.74000000000001</ele>
        <time>2024-06-07T14:01:58Z</time>
      </trkpt>
      <trkpt lat="45.564644560217857" lon="5.919056860730052">
        <ele>294.30000000000001</ele>
        <time>2024-06-07T14:01:44Z</time>
      </trkpt>
      <trkpt lat="45.564546072855592" lon="5.918889809399843">
        <ele>290.94</ele>
        <time>2024-06-07T14:01:25Z</time>
      </trkpt>
      <trkpt lat="45.564517239108682" lon="5.91880121268332">
        <ele>290.94</ele>
        <time>2024-06-07T14:01:05Z</time>
      </trkpt>
      <trkpt lat="45.5646769143641" lon="5.91916867531836">
        <ele>290.94</ele>
        <time>2024-06-07T14:00:42Z</time>
      </trkpt>
      <trkpt lat="45.564622515812516" lon="5.919213183224201">
        <ele>292.38</ele>
        <time>2024-06-07T14:00:21Z</time>
      </trkpt>
      <trkpt lat="45.564228901639581" lon="5.919426251202822">
        <ele>292.38</ele>
        <time>2024-06-07T14:00:08Z</time>
      </trkpt>
      <trkpt lat="45.563960345461965" lon="5.919533958658576">
        <ele>292.38</ele>
        <time>2024-06-07T13:59:47Z</time>
      </trkpt>
      <trkpt lat="45.563906617462635" lon="5.919577460736036">
        <ele>292.38</ele>
        <time>2024-06-07T13:59:34Z</time>
      </trkpt>
      <trkpt lat="45.563843417912722" lon="5.919602774083614">
        <ele>291.89999999999998</ele>
        <time>2024-06-07T13:59:15Z</time>
      </trkpt>
      <trkpt lat="45.56391173042357" lon="5.919721629470587">
        <ele>290.94</ele>
        <time>2024-06-07T13:58:52Z</time>
      </trkpt>
      <trkpt lat="45.564142735674977" lon="5.920212892815471">
        <ele>289.97000000000003</ele>
        <time>2024-06-07T13:58:34Z</time>
      </trkpt>
      <trkpt lat="45.564142568036914" lon="5.920292101800442">
        <ele>289.97000000000003</ele>
        <time>2024-06-07T13:58:19Z</time>
      </trkpt>
      <trkpt lat="45.564236948266625" lon="5.920435013249517">
        <ele>289.49000000000001</ele>
        <time>2024-06-07T13:57:55Z</time>
      </trkpt>
      <trkpt lat="45.564282964915037" lon="5.920545570552349">
        <ele>289.00999999999999</ele>
        <time>2024-06-07T13:57:39Z</time>
      </trkpt>
      <trkpt lat="45.564331160858274" lon="5.920647913590074">
        <ele>289.00999999999999</ele>
        <time>2024-06-07T13:57:17Z</time>
      </trkpt>
      <trkpt lat="45.564421601593494" lon="5.920735923573375">
        <ele>289.00999999999999</ele>
        <time>2024-06-07T13:57:01Z</time>
      </trkpt>
      <trkpt lat="45.564550263807178" lon="5.92086517252028">
        <ele>288.52999999999997</ele>
        <time>2024-06-07T13:55:42Z</time>
      </trkpt>
      <trkpt lat="45.564582115039229" lon="5.920885037630796">
        <ele>288.52999999999997</ele>
        <time>2024-06-07T13:55:24Z</time>
      </trkpt>
      <trkpt lat="45.564612122252584" lon="5.921043790876865">
        <ele>289.00999999999999</ele>
        <time>2024-06-07T13:55:08Z</time>
      </trkpt>
      <trkpt lat="45.564561663195491" lon="5.921094669029117">
        <ele>289.00999999999999</ele>
        <time>2024-06-07T13:54:50Z</time>
      </trkpt>
      <trkpt lat="45.564476083964109" lon="5.92122140340507">
        <ele>288.52999999999997</ele>
        <time>2024-06-07T13:54:43Z</time>
      </trkpt>
    </trkseg>
  </trk>

</gpx>